EREK1: Neosho River near Erie

                                SHEF ID:       EREK1     NEOSHO R NR ERIE, KS
STATION TYPE:

PRECIP STAGE RIV-FLOW BAT-LOAD
in ft cfs volt
Ccp-Rev Ccp-Rev Ccp-Rev Ccp-Rev
(America/Chicago)
02/17 00:00 ---- 13.94 2970 12.45
02/17 01:00 ---- 13.86 2860 12.44
02/17 02:00 ---- 13.81 2790 12.42
02/17 03:00 ---- 13.73 2670 12.40
02/17 04:00 ---- 13.71 2640 12.37
02/17 05:00 ---- 13.67 2580 12.37
02/17 06:00 ---- 13.56 2420 12.36
02/17 07:00 ---- 13.54 2390 12.35
02/17 08:00 ---- 13.49 2320 12.35
02/17 09:00 ---- 13.46 2270 12.44
02/17 10:00 ---- 13.44 2240 12.77
02/17 11:00 ---- 13.37 2160 13.02
02/17 12:00 ---- 13.37 2160 13.35
02/17 13:00 ---- 13.31 2100 13.56
02/17 14:00 ---- 13.30 2090 13.59
02/17 15:00 ---- 13.22 2010 13.32
02/17 16:00 ---- 13.22 2010 13.22
02/17 17:00 ---- 13.19 1980 12.82
02/17 18:00 ---- 13.13 1920 12.53
02/17 19:00 ---- 13.13 1920 12.51
02/17 20:00 ---- 13.09 1880 12.49
02/17 21:00 ---- 13.07 1860 12.47
02/17 22:00 ---- 13.03 1830 12.44
02/17 23:00 ---- 13.05 1850 12.42
Data processed at Wed 18Feb2026 05:23 GMT

NOTICE: If you are parsing this page

Please convert to using our Data API. Starting early 2026 we will be migrating to: https://water.usace.army.mil with modern pages rendered in JavaScript. When this migration completes you will no longer be able to scrape this page! CWMSDataAPI (CDA)

Timeseries IDs (TSIDs)

TSIDs used from left to right in the data table
ERIE.Precip-Inc.Total.1Hour.1Hour.Ccp-Rev
ERIE.Stage.Inst.1Hour.0.Ccp-Rev
ERIE.Flow.Inst.1Hour.0.Ccp-Rev
ERIE.Volt-Battery Load.Inst.1Hour.0.Ccp-Rev

                            

All information presented herein is the property of the government of the United States of America and may be revised or deleted at any time without prior notice. Dissemination of this information without the expressed written consent of the Public Affairs Office, Tulsa District U.S. Army Corps of Engineers is strictly prohibited. These data are gathered electronically and, as presented, have NOT undergone any form of quality control. These data are NOT guaranteed to be valid or correct.